sensor_id;sensor_type;location;lat;lon;timestamp;P1;durP1;ratioP1;P2;durP2;ratioP2
25191;SDS011;13143;50.924;5.320;2022-11-11T00:00:28;9.32;;;4.07;;
25191;SDS011;13143;50.924;5.320;2022-11-11T00:02:55;11.25;;;4.10;;
25191;SDS011;13143;50.924;5.320;2022-11-11T00:05:21;13.43;;;4.45;;
25191;SDS011;13143;50.924;5.320;2022-11-11T00:07:47;12.52;;;4.03;;
25191;SDS011;13143;50.924;5.320;2022-11-11T00:10:13;10.85;;;4.00;;
25191;SDS011;13143;50.924;5.320;2022-11-11T00:12:39;9.82;;;4.18;;
25191;SDS011;13143;50.924;5.320;2022-11-11T00:15:04;14.70;;;4.05;;
25191;SDS011;13143;50.924;5.320;2022-11-11T00:17:32;14.93;;;4.60;;
25191;SDS011;13143;50.924;5.320;2022-11-11T00:20:16;8.88;;;4.28;;
25191;SDS011;13143;50.924;5.320;2022-11-11T00:23:01;13.88;;;4.38;;
25191;SDS011;13143;50.924;5.320;2022-11-11T00:25:46;10.57;;;4.28;;
25191;SDS011;13143;50.924;5.320;2022-11-11T00:28:16;10.13;;;4.28;;
25191;SDS011;13143;50.924;5.320;2022-11-11T00:30:41;7.28;;;4.20;;
25191;SDS011;13143;50.924;5.320;2022-11-11T00:33:07;10.35;;;4.78;;
25191;SDS011;13143;50.924;5.320;2022-11-11T00:35:33;8.98;;;4.22;;
25191;SDS011;13143;50.924;5.320;2022-11-11T00:38:17;11.93;;;4.45;;
25191;SDS011;13143;50.924;5.320;2022-11-11T00:41:01;9.43;;;4.57;;
25191;SDS011;13143;50.924;5.320;2022-11-11T00:43:26;10.82;;;4.55;;
25191;SDS011;13143;50.924;5.320;2022-11-11T00:45:52;14.23;;;5.35;;
25191;SDS011;13143;50.924;5.320;2022-11-11T00:48:18;8.80;;;4.65;;
25191;SDS011;13143;50.924;5.320;2022-11-11T00:51:02;15.32;;;4.88;;
25191;SDS011;13143;50.924;5.320;2022-11-11T00:53:29;15.05;;;4.88;;
25191;SDS011;13143;50.924;5.320;2022-11-11T00:55:57;11.63;;;4.55;;
25191;SDS011;13143;50.924;5.320;2022-11-11T00:58:22;8.45;;;4.75;;
25191;SDS011;13143;50.924;5.320;2022-11-11T01:00:48;14.35;;;5.00;;
25191;SDS011;13143;50.924;5.320;2022-11-11T01:03:17;8.65;;;4.50;;
25191;SDS011;13143;50.924;5.320;2022-11-11T01:05:43;14.70;;;5.07;;
25191;SDS011;13143;50.924;5.320;2022-11-11T01:08:09;10.25;;;4.72;;
25191;SDS011;13143;50.924;5.320;2022-11-11T01:10:35;10.68;;;4.97;;
25191;SDS011;13143;50.924;5.320;2022-11-11T01:13:18;13.55;;;5.78;;
25191;SDS011;13143;50.924;5.320;2022-11-11T01:15:48;10.85;;;4.90;;
25191;SDS011;13143;50.924;5.320;2022-11-11T01:18:17;11.40;;;4.90;;
25191;SDS011;13143;50.924;5.320;2022-11-11T01:20:56;12.43;;;5.15;;
25191;SDS011;13143;50.924;5.320;2022-11-11T01:23:26;17.23;;;4.97;;
25191;SDS011;13143;50.924;5.320;2022-11-11T01:25:52;7.65;;;3.97;;
25191;SDS011;13143;50.924;5.320;2022-11-11T01:28:18;9.75;;;4.47;;
25191;SDS011;13143;50.924;5.320;2022-11-11T01:30:43;16.30;;;4.80;;
25191;SDS011;13143;50.924;5.320;2022-11-11T01:33:10;10.27;;;4.70;;
25191;SDS011;13143;50.924;5.320;2022-11-11T01:35:36;7.95;;;5.18;;
25191;SDS011;13143;50.924;5.320;2022-11-11T01:38:03;7.88;;;4.45;;
25191;SDS011;13143;50.924;5.320;2022-11-11T01:40:28;14.38;;;5.63;;
25191;SDS011;13143;50.924;5.320;2022-11-11T01:48:16;11.13;;;5.10;;
25191;SDS011;13143;50.924;5.320;2022-11-11T01:51:08;10.93;;;5.28;;
25191;SDS011;13143;50.924;5.320;2022-11-11T01:54:03;12.63;;;5.22;;
25191;SDS011;13143;50.924;5.320;2022-11-11T01:56:36;12.48;;;5.43;;
25191;SDS011;13143;50.924;5.320;2022-11-11T01:59:04;7.25;;;4.72;;
25191;SDS011;13143;50.924;5.320;2022-11-11T02:01:35;9.52;;;4.68;;
25191;SDS011;13143;50.924;5.320;2022-11-11T02:04:00;13.50;;;5.25;;
25191;SDS011;13143;50.924;5.320;2022-11-11T02:06:47;11.05;;;5.43;;
25191;SDS011;13143;50.924;5.320;2022-11-11T02:09:15;10.20;;;4.57;;
25191;SDS011;13143;50.924;5.320;2022-11-11T02:11:41;13.45;;;4.88;;
25191;SDS011;13143;50.924;5.320;2022-11-11T02:14:26;11.38;;;5.15;;
25191;SDS011;13143;50.924;5.320;2022-11-11T02:17:02;11.85;;;5.25;;
25191;SDS011;13143;50.924;5.320;2022-11-11T02:19:37;8.65;;;5.50;;
25191;SDS011;13143;50.924;5.320;2022-11-11T02:22:11;12.60;;;4.70;;
25191;SDS011;13143;50.924;5.320;2022-11-11T02:24:41;7.47;;;4.47;;
25191;SDS011;13143;50.924;5.320;2022-11-11T02:27:11;11.65;;;5.15;;
25191;SDS011;13143;50.924;5.320;2022-11-11T02:29:41;9.48;;;4.88;;
25191;SDS011;13143;50.924;5.320;2022-11-11T02:32:10;8.98;;;5.53;;
25191;SDS011;13143;50.924;5.320;2022-11-11T02:34:35;10.68;;;5.25;;
25191;SDS011;13143;50.924;5.320;2022-11-11T02:37:02;9.98;;;5.32;;
25191;SDS011;13143;50.924;5.320;2022-11-11T02:39:30;10.25;;;5.28;;
25191;SDS011;13143;50.924;5.320;2022-11-11T02:41:58;14.80;;;5.45;;
25191;SDS011;13143;50.924;5.320;2022-11-11T02:44:24;15.48;;;5.70;;
25191;SDS011;13143;50.924;5.320;2022-11-11T02:46:51;9.40;;;5.18;;
25191;SDS011;13143;50.924;5.320;2022-11-11T02:49:17;9.18;;;5.63;;
25191;SDS011;13143;50.924;5.320;2022-11-11T02:51:42;13.43;;;5.15;;
25191;SDS011;13143;50.924;5.320;2022-11-11T02:54:08;7.97;;;4.38;;
25191;SDS011;13143;50.924;5.320;2022-11-11T02:56:33;9.80;;;5.75;;
25191;SDS011;13143;50.924;5.320;2022-11-11T02:59:18;13.52;;;5.05;;
25191;SDS011;13143;50.924;5.320;2022-11-11T03:01:46;8.20;;;5.00;;
25191;SDS011;13143;50.924;5.320;2022-11-11T03:04:11;8.82;;;5.07;;
25191;SDS011;13143;50.924;5.320;2022-11-11T03:06:37;13.52;;;5.25;;
25191;SDS011;13143;50.924;5.320;2022-11-11T03:09:03;8.45;;;5.13;;
25191;SDS011;13143;50.924;5.320;2022-11-11T03:11:28;12.20;;;5.13;;
25191;SDS011;13143;50.924;5.320;2022-11-11T03:13:54;12.20;;;5.25;;
25191;SDS011;13143;50.924;5.320;2022-11-11T03:16:21;10.85;;;5.35;;
25191;SDS011;13143;50.924;5.320;2022-11-11T03:19:05;8.93;;;5.15;;
25191;SDS011;13143;50.924;5.320;2022-11-11T03:21:31;8.75;;;5.03;;
25191;SDS011;13143;50.924;5.320;2022-11-11T03:23:56;11.55;;;5.63;;
25191;SDS011;13143;50.924;5.320;2022-11-11T03:26:22;9.85;;;5.55;;
25191;SDS011;13143;50.924;5.320;2022-11-11T03:28:48;7.60;;;4.85;;
25191;SDS011;13143;50.924;5.320;2022-11-11T03:31:14;7.38;;;5.38;;
25191;SDS011;13143;50.924;5.320;2022-11-11T03:33:39;6.93;;;4.80;;
25191;SDS011;13143;50.924;5.320;2022-11-11T03:36:05;11.00;;;5.40;;
25191;SDS011;13143;50.924;5.320;2022-11-11T03:38:31;10.95;;;5.47;;
25191;SDS011;13143;50.924;5.320;2022-11-11T03:40:56;12.65;;;5.85;;
25191;SDS011;13143;50.924;5.320;2022-11-11T03:43:23;12.27;;;6.65;;
25191;SDS011;13143;50.924;5.320;2022-11-11T03:45:51;13.35;;;6.75;;
25191;SDS011;13143;50.924;5.320;2022-11-11T03:48:18;12.30;;;6.28;;
25191;SDS011;13143;50.924;5.320;2022-11-11T03:50:45;11.68;;;6.00;;
25191;SDS011;13143;50.924;5.320;2022-11-11T03:53:12;14.90;;;6.35;;
25191;SDS011;13143;50.924;5.320;2022-11-11T03:55:38;10.23;;;5.50;;
25191;SDS011;13143;50.924;5.320;2022-11-11T03:58:05;11.43;;;6.13;;
25191;SDS011;13143;50.924;5.320;2022-11-11T04:00:30;13.88;;;6.35;;
25191;SDS011;13143;50.924;5.320;2022-11-11T04:03:03;9.13;;;6.05;;
25191;SDS011;13143;50.924;5.320;2022-11-11T04:05:55;9.38;;;5.60;;
25191;SDS011;13143;50.924;5.320;2022-11-11T04:08:40;13.25;;;6.28;;
25191;SDS011;13143;50.924;5.320;2022-11-11T04:11:28;12.45;;;5.82;;
25191;SDS011;13143;50.924;5.320;2022-11-11T04:13:58;9.20;;;6.43;;
25191;SDS011;13143;50.924;5.320;2022-11-11T04:16:45;7.93;;;6.00;;
25191;SDS011;13143;50.924;5.320;2022-11-11T04:19:10;12.52;;;6.22;;
25191;SDS011;13143;50.924;5.320;2022-11-11T04:21:54;9.95;;;6.38;;
25191;SDS011;13143;50.924;5.320;2022-11-11T04:24:20;13.88;;;6.68;;
25191;SDS011;13143;50.924;5.320;2022-11-11T04:27:08;12.95;;;6.13;;
25191;SDS011;13143;50.924;5.320;2022-11-11T04:29:35;18.48;;;6.88;;
25191;SDS011;13143;50.924;5.320;2022-11-11T04:34:53;16.27;;;6.85;;
25191;SDS011;13143;50.924;5.320;2022-11-11T04:37:20;12.15;;;5.93;;
25191;SDS011;13143;50.924;5.320;2022-11-11T04:39:46;10.65;;;5.97;;
25191;SDS011;13143;50.924;5.320;2022-11-11T04:42:31;11.85;;;5.75;;
25191;SDS011;13143;50.924;5.320;2022-11-11T04:44:57;9.68;;;5.82;;
25191;SDS011;13143;50.924;5.320;2022-11-11T04:47:51;11.07;;;6.03;;
25191;SDS011;13143;50.924;5.320;2022-11-11T04:50:18;9.70;;;5.45;;
25191;SDS011;13143;50.924;5.320;2022-11-11T04:52:43;12.07;;;5.93;;
25191;SDS011;13143;50.924;5.320;2022-11-11T04:55:09;9.98;;;5.28;;
25191;SDS011;13143;50.924;5.320;2022-11-11T04:57:53;9.32;;;5.50;;
25191;SDS011;13143;50.924;5.320;2022-11-11T05:00:19;14.65;;;5.72;;
25191;SDS011;13143;50.924;5.320;2022-11-11T05:02:45;11.35;;;5.40;;
25191;SDS011;13143;50.924;5.320;2022-11-11T05:05:29;11.20;;;5.30;;
25191;SDS011;13143;50.924;5.320;2022-11-11T05:08:18;15.52;;;5.85;;
25191;SDS011;13143;50.924;5.320;2022-11-11T05:11:02;11.48;;;5.20;;
25191;SDS011;13143;50.924;5.320;2022-11-11T05:13:29;8.05;;;4.70;;
25191;SDS011;13143;50.924;5.320;2022-11-11T05:16:14;10.75;;;5.22;;
25191;SDS011;13143;50.924;5.320;2022-11-11T05:19:02;7.40;;;4.40;;
25191;SDS011;13143;50.924;5.320;2022-11-11T05:21:46;8.23;;;4.25;;
25191;SDS011;13143;50.924;5.320;2022-11-11T05:24:12;8.50;;;4.78;;
25191;SDS011;13143;50.924;5.320;2022-11-11T05:26:56;9.90;;;4.32;;
25191;SDS011;13143;50.924;5.320;2022-11-11T05:29:22;6.68;;;4.65;;
25191;SDS011;13143;50.924;5.320;2022-11-11T05:31:47;7.40;;;4.53;;
25191;SDS011;13143;50.924;5.320;2022-11-11T05:34:13;13.98;;;4.93;;
25191;SDS011;13143;50.924;5.320;2022-11-11T05:36:39;8.07;;;4.90;;
25191;SDS011;13143;50.924;5.320;2022-11-11T05:39:04;9.52;;;4.20;;
25191;SDS011;13143;50.924;5.320;2022-11-11T05:41:30;7.07;;;4.43;;
25191;SDS011;13143;50.924;5.320;2022-11-11T05:43:55;5.85;;;4.28;;
25191;SDS011;13143;50.924;5.320;2022-11-11T05:46:21;8.23;;;4.40;;
25191;SDS011;13143;50.924;5.320;2022-11-11T05:48:46;10.30;;;4.80;;
25191;SDS011;13143;50.924;5.320;2022-11-11T05:51:31;8.85;;;4.90;;
25191;SDS011;13143;50.924;5.320;2022-11-11T05:53:56;6.40;;;4.05;;
25191;SDS011;13143;50.924;5.320;2022-11-11T05:56:22;9.85;;;4.55;;
25191;SDS011;13143;50.924;5.320;2022-11-11T05:58:48;8.07;;;4.43;;
25191;SDS011;13143;50.924;5.320;2022-11-11T06:01:13;10.27;;;4.65;;
25191;SDS011;13143;50.924;5.320;2022-11-11T06:03:39;7.60;;;4.55;;
25191;SDS011;13143;50.924;5.320;2022-11-11T06:06:05;6.55;;;3.95;;
25191;SDS011;13143;50.924;5.320;2022-11-11T06:08:30;7.90;;;4.32;;
25191;SDS011;13143;50.924;5.320;2022-11-11T06:10:56;6.45;;;4.07;;
25191;SDS011;13143;50.924;5.320;2022-11-11T06:13:22;7.65;;;4.82;;
25191;SDS011;13143;50.924;5.320;2022-11-11T06:15:48;11.82;;;4.18;;
25191;SDS011;13143;50.924;5.320;2022-11-11T06:18:13;10.02;;;5.07;;
25191;SDS011;13143;50.924;5.320;2022-11-11T06:20:39;11.55;;;4.72;;
25191;SDS011;13143;50.924;5.320;2022-11-11T06:23:05;5.32;;;4.10;;
25191;SDS011;13143;50.924;5.320;2022-11-11T06:25:31;8.45;;;5.13;;
25191;SDS011;13143;50.924;5.320;2022-11-11T06:28:16;7.07;;;4.35;;
25191;SDS011;13143;50.924;5.320;2022-11-11T06:30:43;10.13;;;4.30;;
25191;SDS011;13143;50.924;5.320;2022-11-11T06:33:09;6.75;;;3.70;;
25191;SDS011;13143;50.924;5.320;2022-11-11T06:35:36;7.13;;;4.20;;
25191;SDS011;13143;50.924;5.320;2022-11-11T06:38:03;9.25;;;4.30;;
25191;SDS011;13143;50.924;5.320;2022-11-11T06:40:30;7.40;;;3.95;;
25191;SDS011;13143;50.924;5.320;2022-11-11T06:42:56;7.40;;;4.15;;
25191;SDS011;13143;50.924;5.320;2022-11-11T06:45:22;8.73;;;4.40;;
25191;SDS011;13143;50.924;5.320;2022-11-11T06:47:49;8.23;;;4.32;;
25191;SDS011;13143;50.924;5.320;2022-11-11T06:50:14;11.32;;;4.43;;
25191;SDS011;13143;50.924;5.320;2022-11-11T06:52:40;8.88;;;4.38;;
25191;SDS011;13143;50.924;5.320;2022-11-11T06:55:06;8.98;;;4.53;;
25191;SDS011;13143;50.924;5.320;2022-11-11T06:57:32;6.63;;;4.25;;
25191;SDS011;13143;50.924;5.320;2022-11-11T06:59:57;10.43;;;4.75;;
25191;SDS011;13143;50.924;5.320;2022-11-11T07:02:23;6.93;;;4.05;;
25191;SDS011;13143;50.924;5.320;2022-11-11T07:04:48;10.07;;;3.50;;
25191;SDS011;13143;50.924;5.320;2022-11-11T07:07:14;7.90;;;3.90;;
25191;SDS011;13143;50.924;5.320;2022-11-11T07:09:41;8.15;;;3.83;;
25191;SDS011;13143;50.924;5.320;2022-11-11T07:12:07;9.52;;;4.65;;
25191;SDS011;13143;50.924;5.320;2022-11-11T07:14:33;8.10;;;3.67;;
25191;SDS011;13143;50.924;5.320;2022-11-11T07:16:59;9.45;;;4.28;;
25191;SDS011;13143;50.924;5.320;2022-11-11T07:19:24;7.70;;;4.03;;
25191;SDS011;13143;50.924;5.320;2022-11-11T07:21:50;9.10;;;4.50;;
25191;SDS011;13143;50.924;5.320;2022-11-11T07:24:15;9.60;;;4.32;;
25191;SDS011;13143;50.924;5.320;2022-11-11T07:26:41;10.35;;;4.88;;
25191;SDS011;13143;50.924;5.320;2022-11-11T07:29:07;8.35;;;4.25;;
25191;SDS011;13143;50.924;5.320;2022-11-11T07:31:32;12.38;;;4.50;;
25191;SDS011;13143;50.924;5.320;2022-11-11T07:33:58;6.75;;;4.05;;
25191;SDS011;13143;50.924;5.320;2022-11-11T07:36:24;10.63;;;4.30;;
25191;SDS011;13143;50.924;5.320;2022-11-11T07:38:49;9.13;;;4.13;;
25191;SDS011;13143;50.924;5.320;2022-11-11T07:41:15;7.63;;;4.50;;
25191;SDS011;13143;50.924;5.320;2022-11-11T07:43:40;12.25;;;4.72;;
25191;SDS011;13143;50.924;5.320;2022-11-11T07:46:06;6.63;;;4.40;;
25191;SDS011;13143;50.924;5.320;2022-11-11T07:48:32;10.48;;;4.38;;
25191;SDS011;13143;50.924;5.320;2022-11-11T07:50:57;11.90;;;4.53;;
25191;SDS011;13143;50.924;5.320;2022-11-11T07:53:23;12.05;;;4.55;;
25191;SDS011;13143;50.924;5.320;2022-11-11T07:55:50;14.45;;;5.10;;
25191;SDS011;13143;50.924;5.320;2022-11-11T07:58:15;8.35;;;4.30;;
25191;SDS011;13143;50.924;5.320;2022-11-11T08:00:41;8.25;;;4.10;;
25191;SDS011;13143;50.924;5.320;2022-11-11T08:03:07;11.77;;;5.47;;
25191;SDS011;13143;50.924;5.320;2022-11-11T08:05:32;12.30;;;4.70;;
25191;SDS011;13143;50.924;5.320;2022-11-11T08:08:04;8.15;;;4.72;;
25191;SDS011;13143;50.924;5.320;2022-11-11T08:12:57;9.73;;;5.90;;
25191;SDS011;13143;50.924;5.320;2022-11-11T08:15:42;9.00;;;4.57;;
25191;SDS011;13143;50.924;5.320;2022-11-11T08:18:07;10.05;;;4.60;;
25191;SDS011;13143;50.924;5.320;2022-11-11T08:20:33;12.68;;;4.63;;
25191;SDS011;13143;50.924;5.320;2022-11-11T08:22:59;7.57;;;4.32;;
25191;SDS011;13143;50.924;5.320;2022-11-11T08:25:28;11.23;;;4.20;;
25191;SDS011;13143;50.924;5.320;2022-11-11T08:27:58;10.90;;;4.43;;
25191;SDS011;13143;50.924;5.320;2022-11-11T08:30:29;10.60;;;4.03;;
25191;SDS011;13143;50.924;5.320;2022-11-11T08:32:59;10.85;;;4.43;;
25191;SDS011;13143;50.924;5.320;2022-11-11T08:35:29;8.30;;;4.03;;
25191;SDS011;13143;50.924;5.320;2022-11-11T08:37:55;8.70;;;4.63;;
25191;SDS011;13143;50.924;5.320;2022-11-11T08:40:25;14.35;;;4.95;;
25191;SDS011;13143;50.924;5.320;2022-11-11T08:42:54;10.82;;;4.40;;
25191;SDS011;13143;50.924;5.320;2022-11-11T08:45:21;12.13;;;4.28;;
25191;SDS011;13143;50.924;5.320;2022-11-11T08:47:47;8.25;;;5.20;;
25191;SDS011;13143;50.924;5.320;2022-11-11T08:50:13;8.48;;;4.05;;
25191;SDS011;13143;50.924;5.320;2022-11-11T08:52:44;8.38;;;4.07;;
25191;SDS011;13143;50.924;5.320;2022-11-11T08:55:10;7.82;;;4.05;;
25191;SDS011;13143;50.924;5.320;2022-11-11T08:57:36;11.95;;;4.00;;
25191;SDS011;13143;50.924;5.320;2022-11-11T09:00:02;14.18;;;4.68;;
25191;SDS011;13143;50.924;5.320;2022-11-11T09:02:29;10.35;;;3.35;;
25191;SDS011;13143;50.924;5.320;2022-11-11T09:04:55;7.75;;;3.67;;
25191;SDS011;13143;50.924;5.320;2022-11-11T09:07:20;10.95;;;3.40;;
25191;SDS011;13143;50.924;5.320;2022-11-11T09:09:46;5.30;;;3.50;;
25191;SDS011;13143;50.924;5.320;2022-11-11T09:12:11;6.15;;;3.20;;
25191;SDS011;13143;50.924;5.320;2022-11-11T09:14:37;4.80;;;3.22;;
25191;SDS011;13143;50.924;5.320;2022-11-11T09:17:03;9.07;;;3.38;;
25191;SDS011;13143;50.924;5.320;2022-11-11T09:19:28;10.50;;;3.50;;
25191;SDS011;13143;50.924;5.320;2022-11-11T09:21:54;6.93;;;3.28;;
25191;SDS011;13143;50.924;5.320;2022-11-11T09:24:19;6.63;;;3.15;;
25191;SDS011;13143;50.924;5.320;2022-11-11T09:26:48;7.32;;;3.10;;
25191;SDS011;13143;50.924;5.320;2022-11-11T09:29:15;9.00;;;3.60;;
25191;SDS011;13143;50.924;5.320;2022-11-11T09:31:41;6.93;;;3.20;;
25191;SDS011;13143;50.924;5.320;2022-11-11T09:34:06;5.95;;;2.97;;
25191;SDS011;13143;50.924;5.320;2022-11-11T09:36:32;6.35;;;3.00;;
25191;SDS011;13143;50.924;5.320;2022-11-11T09:38:58;9.10;;;3.17;;
25191;SDS011;13143;50.924;5.320;2022-11-11T09:41:27;12.02;;;3.30;;
25191;SDS011;13143;50.924;5.320;2022-11-11T09:44:39;9.57;;;3.10;;
25191;SDS011;13143;50.924;5.320;2022-11-11T09:47:14;5.72;;;2.78;;
25191;SDS011;13143;50.924;5.320;2022-11-11T09:54:50;7.07;;;2.80;;
25191;SDS011;13143;50.924;5.320;2022-11-11T09:59:54;9.93;;;2.88;;
25191;SDS011;13143;50.924;5.320;2022-11-11T10:05:15;5.13;;;2.30;;
25191;SDS011;13143;50.924;5.320;2022-11-11T10:13:10;5.07;;;2.33;;
25191;SDS011;13143;50.924;5.320;2022-11-11T10:15:58;6.93;;;2.00;;
25191;SDS011;13143;50.924;5.320;2022-11-11T10:21:52;6.03;;;2.13;;
25191;SDS011;13143;50.924;5.320;2022-11-11T10:24:30;4.10;;;1.83;;
25191;SDS011;13143;50.924;5.320;2022-11-11T10:26:59;9.05;;;2.25;;
25191;SDS011;13143;50.924;5.320;2022-11-11T10:29:29;4.45;;;1.83;;
25191;SDS011;13143;50.924;5.320;2022-11-11T10:34:49;4.40;;;1.80;;
25191;SDS011;13143;50.924;5.320;2022-11-11T10:37:20;5.38;;;1.70;;
25191;SDS011;13143;50.924;5.320;2022-11-11T10:42:42;6.72;;;2.42;;
25191;SDS011;13143;50.924;5.320;2022-11-11T10:45:29;3.70;;;1.73;;
25191;SDS011;13143;50.924;5.320;2022-11-11T10:48:15;6.88;;;1.63;;
25191;SDS011;13143;50.924;5.320;2022-11-11T10:50:49;4.38;;;1.60;;
25191;SDS011;13143;50.924;5.320;2022-11-11T10:53:26;4.07;;;1.92;;
25191;SDS011;13143;50.924;5.320;2022-11-11T10:56:04;6.35;;;1.70;;
25191;SDS011;13143;50.924;5.320;2022-11-11T10:58:47;6.93;;;1.75;;
25191;SDS011;13143;50.924;5.320;2022-11-11T11:01:35;6.47;;;1.95;;
25191;SDS011;13143;50.924;5.320;2022-11-11T11:04:36;4.07;;;1.60;;
25191;SDS011;13143;50.924;5.320;2022-11-11T11:06:57;6.25;;;2.20;;
25191;SDS011;13143;50.924;5.320;2022-11-11T11:09:38;4.60;;;1.40;;
25191;SDS011;13143;50.924;5.320;2022-11-11T11:14:42;5.00;;;1.65;;
25191;SDS011;13143;50.924;5.320;2022-11-11T11:17:23;3.58;;;1.60;;
25191;SDS011;13143;50.924;5.320;2022-11-11T11:20:05;3.97;;;1.60;;
25191;SDS011;13143;50.924;5.320;2022-11-11T11:22:43;3.88;;;1.80;;
25191;SDS011;13143;50.924;5.320;2022-11-11T11:25:17;4.88;;;2.20;;
25191;SDS011;13143;50.924;5.320;2022-11-11T11:27:44;2.58;;;1.40;;
25191;SDS011;13143;50.924;5.320;2022-11-11T11:38:04;4.78;;;1.60;;
25191;SDS011;13143;50.924;5.320;2022-11-11T11:40:47;4.55;;;1.75;;
25191;SDS011;13143;50.924;5.320;2022-11-11T11:46:25;5.38;;;1.83;;
25191;SDS011;13143;50.924;5.320;2022-11-11T11:48:58;7.78;;;2.00;;
25191;SDS011;13143;50.924;5.320;2022-11-11T11:56:43;4.78;;;1.90;;
25191;SDS011;13143;50.924;5.320;2022-11-11T12:05:10;4.10;;;1.40;;
25191;SDS011;13143;50.924;5.320;2022-11-11T12:08:12;9.30;;;2.38;;
25191;SDS011;13143;50.924;5.320;2022-11-11T12:14:02;5.40;;;1.77;;
25191;SDS011;13143;50.924;5.320;2022-11-11T12:16:37;3.25;;;1.50;;
25191;SDS011;13143;50.924;5.320;2022-11-11T12:25:01;4.15;;;1.70;;
25191;SDS011;13143;50.924;5.320;2022-11-11T12:30:23;4.80;;;1.70;;
25191;SDS011;13143;50.924;5.320;2022-11-11T12:41:06;3.60;;;1.80;;
25191;SDS011;13143;50.924;5.320;2022-11-11T12:46:28;3.63;;;1.65;;
25191;SDS011;13143;50.924;5.320;2022-11-11T12:49:22;3.80;;;1.60;;
25191;SDS011;13143;50.924;5.320;2022-11-11T12:57:33;3.38;;;1.55;;
25191;SDS011;13143;50.924;5.320;2022-11-11T13:05:25;4.05;;;2.10;;
25191;SDS011;13143;50.924;5.320;2022-11-11T13:10:35;4.55;;;1.80;;
25191;SDS011;13143;50.924;5.320;2022-11-11T13:15:36;4.53;;;1.90;;
25191;SDS011;13143;50.924;5.320;2022-11-11T13:18:06;5.15;;;1.70;;
25191;SDS011;13143;50.924;5.320;2022-11-11T13:20:59;2.40;;;1.33;;
25191;SDS011;13143;50.924;5.320;2022-11-11T13:23:26;2.92;;;1.75;;
25191;SDS011;13143;50.924;5.320;2022-11-11T13:25:54;5.68;;;1.98;;
25191;SDS011;13143;50.924;5.320;2022-11-11T13:28:36;2.85;;;1.70;;
25191;SDS011;13143;50.924;5.320;2022-11-11T13:31:22;5.57;;;1.95;;
25191;SDS011;13143;50.924;5.320;2022-11-11T13:34:02;6.53;;;2.20;;
25191;SDS011;13143;50.924;5.320;2022-11-11T13:36:38;4.00;;;1.50;;
25191;SDS011;13143;50.924;5.320;2022-11-11T13:41:57;3.83;;;1.70;;
25191;SDS011;13143;50.924;5.320;2022-11-11T13:44:26;4.38;;;2.22;;
25191;SDS011;13143;50.924;5.320;2022-11-11T13:55:34;5.07;;;1.55;;
25191;SDS011;13143;50.924;5.320;2022-11-11T13:58:03;8.65;;;1.60;;
25191;SDS011;13143;50.924;5.320;2022-11-11T14:00:36;8.32;;;2.00;;
25191;SDS011;13143;50.924;5.320;2022-11-11T14:05:37;5.32;;;1.85;;
25191;SDS011;13143;50.924;5.320;2022-11-11T14:08:03;4.65;;;2.13;;
25191;SDS011;13143;50.924;5.320;2022-11-11T14:15:50;17.35;;;2.10;;
25191;SDS011;13143;50.924;5.320;2022-11-11T14:20:49;6.97;;;2.17;;
25191;SDS011;13143;50.924;5.320;2022-11-11T14:25:49;3.85;;;1.75;;
25191;SDS011;13143;50.924;5.320;2022-11-11T14:30:54;5.75;;;1.70;;
25191;SDS011;13143;50.924;5.320;2022-11-11T14:49:46;10.13;;;3.20;;
25191;SDS011;13143;50.924;5.320;2022-11-11T15:00:09;5.68;;;1.90;;
25191;SDS011;13143;50.924;5.320;2022-11-11T15:02:45;5.53;;;1.92;;
25191;SDS011;13143;50.924;5.320;2022-11-11T15:19:22;8.35;;;2.78;;
25191;SDS011;13143;50.924;5.320;2022-11-11T15:25:22;8.02;;;2.72;;
25191;SDS011;13143;50.924;5.320;2022-11-11T15:27:56;5.07;;;2.45;;
25191;SDS011;13143;50.924;5.320;2022-11-11T15:36:09;8.00;;;3.00;;
25191;SDS011;13143;50.924;5.320;2022-11-11T15:38:37;7.85;;;3.35;;
25191;SDS011;13143;50.924;5.320;2022-11-11T15:41:03;7.78;;;3.78;;
25191;SDS011;13143;50.924;5.320;2022-11-11T15:43:30;9.65;;;3.72;;
25191;SDS011;13143;50.924;5.320;2022-11-11T15:46:02;16.27;;;3.30;;
25191;SDS011;13143;50.924;5.320;2022-11-11T15:48:32;6.45;;;3.30;;
25191;SDS011;13143;50.924;5.320;2022-11-11T15:53:51;7.93;;;3.72;;
25191;SDS011;13143;50.924;5.320;2022-11-11T15:56:29;8.50;;;4.07;;
25191;SDS011;13143;50.924;5.320;2022-11-11T15:58:56;7.50;;;4.03;;
25191;SDS011;13143;50.924;5.320;2022-11-11T16:01:25;10.85;;;4.03;;
25191;SDS011;13143;50.924;5.320;2022-11-11T16:03:53;8.13;;;4.05;;
25191;SDS011;13143;50.924;5.320;2022-11-11T16:06:19;10.02;;;3.83;;
25191;SDS011;13143;50.924;5.320;2022-11-11T16:08:46;7.30;;;3.97;;
25191;SDS011;13143;50.924;5.320;2022-11-11T16:11:14;8.23;;;4.32;;
25191;SDS011;13143;50.924;5.320;2022-11-11T16:16:10;8.85;;;3.70;;
25191;SDS011;13143;50.924;5.320;2022-11-11T16:18:47;7.47;;;4.10;;
25191;SDS011;13143;50.924;5.320;2022-11-11T16:23:45;7.53;;;3.70;;
25191;SDS011;13143;50.924;5.320;2022-11-11T16:26:11;5.45;;;3.55;;
25191;SDS011;13143;50.924;5.320;2022-11-11T16:28:41;6.63;;;4.00;;
25191;SDS011;13143;50.924;5.320;2022-11-11T16:31:19;8.20;;;4.32;;
25191;SDS011;13143;50.924;5.320;2022-11-11T16:33:55;11.32;;;4.22;;
25191;SDS011;13143;50.924;5.320;2022-11-11T16:36:20;6.63;;;4.38;;
25191;SDS011;13143;50.924;5.320;2022-11-11T16:38:46;9.77;;;4.15;;
25191;SDS011;13143;50.924;5.320;2022-11-11T16:41:28;13.57;;;5.85;;
25191;SDS011;13143;50.924;5.320;2022-11-11T16:43:58;13.95;;;7.03;;
25191;SDS011;13143;50.924;5.320;2022-11-11T16:51:42;9.98;;;5.43;;
25191;SDS011;13143;50.924;5.320;2022-11-11T16:56:52;11.52;;;5.07;;
25191;SDS011;13143;50.924;5.320;2022-11-11T17:02:00;9.13;;;5.07;;
25191;SDS011;13143;50.924;5.320;2022-11-11T17:04:32;16.90;;;5.85;;
25191;SDS011;13143;50.924;5.320;2022-11-11T17:07:32;13.60;;;5.95;;
25191;SDS011;13143;50.924;5.320;2022-11-11T17:10:21;9.60;;;5.68;;
25191;SDS011;13143;50.924;5.320;2022-11-11T17:12:49;16.30;;;5.43;;
25191;SDS011;13143;50.924;5.320;2022-11-11T17:15:16;9.75;;;5.80;;
25191;SDS011;13143;50.924;5.320;2022-11-11T17:17:44;13.35;;;5.93;;
25191;SDS011;13143;50.924;5.320;2022-11-11T17:20:20;10.45;;;6.20;;
25191;SDS011;13143;50.924;5.320;2022-11-11T17:25:12;8.13;;;5.82;;
25191;SDS011;13143;50.924;5.320;2022-11-11T17:27:38;10.02;;;6.35;;
25191;SDS011;13143;50.924;5.320;2022-11-11T17:30:04;17.63;;;10.25;;
25191;SDS011;13143;50.924;5.320;2022-11-11T17:32:30;15.80;;;9.98;;
25191;SDS011;13143;50.924;5.320;2022-11-11T17:34:55;12.35;;;7.75;;
25191;SDS011;13143;50.924;5.320;2022-11-11T17:37:21;13.60;;;6.35;;
25191;SDS011;13143;50.924;5.320;2022-11-11T17:39:47;13.38;;;7.65;;
25191;SDS011;13143;50.924;5.320;2022-11-11T17:42:12;17.63;;;8.07;;
25191;SDS011;13143;50.924;5.320;2022-11-11T17:44:38;14.52;;;7.80;;
25191;SDS011;13143;50.924;5.320;2022-11-11T17:47:04;17.02;;;10.13;;
25191;SDS011;13143;50.924;5.320;2022-11-11T17:49:30;16.85;;;11.60;;
25191;SDS011;13143;50.924;5.320;2022-11-11T17:51:55;20.70;;;11.85;;
25191;SDS011;13143;50.924;5.320;2022-11-11T17:54:21;21.98;;;14.13;;
25191;SDS011;13143;50.924;5.320;2022-11-11T17:56:47;19.58;;;12.60;;
25191;SDS011;13143;50.924;5.320;2022-11-11T17:59:13;21.88;;;11.85;;
25191;SDS011;13143;50.924;5.320;2022-11-11T18:01:39;21.15;;;13.90;;
25191;SDS011;13143;50.924;5.320;2022-11-11T18:04:04;21.50;;;13.98;;
25191;SDS011;13143;50.924;5.320;2022-11-11T18:06:31;19.85;;;13.73;;
25191;SDS011;13143;50.924;5.320;2022-11-11T18:08:57;20.52;;;13.10;;
25191;SDS011;13143;50.924;5.320;2022-11-11T18:11:23;23.38;;;14.35;;
25191;SDS011;13143;50.924;5.320;2022-11-11T18:13:48;20.80;;;12.32;;